Time;durP1;ratioP1;P1;durP2;ratioP2;P2;SDS_P1;SDS_P2;PMS_P1;PMS_P2;Temp;Humidity;BMP_temperature;BMP_pressure;BME280_temperature;BME280_humidity;BME280_pressure;Samples;Min_cycle;Max_cycle;Signal;HPM_P1;HPM_P2
2021/05/04 00:03:03;;;;;;;5.53;5.10;;;10.80;31.30;;;;;;10468004;28;20244;-72
2021/05/04 00:08:06;;;;;;;5.93;5.37;;;10.70;31.30;;;;;;10467315;28;20239;-72
2021/05/04 00:13:08;;;;;;;4.93;4.53;;;10.70;31.40;;;;;;10461283;28;20328;-72
2021/05/04 00:18:10;;;;;;;5.60;5.20;;;10.60;31.30;;;;;;10470398;28;20319;-72
2021/05/04 00:23:14;;;;;;;6.10;5.17;;;10.50;31.50;;;;;;10463535;28;20233;-72
2021/05/04 00:28:16;;;;;;;5.77;5.37;;;10.40;31.50;;;;;;10464240;28;20308;-72
2021/05/04 00:33:30;;;;;;;4.43;4.03;;;10.30;31.30;;;;;;10466293;28;20232;-73
2021/05/04 00:38:33;;;;;;;5.53;5.03;;;10.20;31.50;;;;;;10469126;28;20243;-73
2021/05/04 00:43:36;;;;;;;5.73;5.23;;;10.10;31.70;;;;;;10468747;28;20225;-73
2021/05/04 00:48:38;;;;;;;4.80;4.40;;;10.10;31.60;;;;;;10468633;28;20231;-73
2021/05/04 00:53:42;;;;;;;5.17;4.67;;;10.00;31.60;;;;;;10458875;28;20271;-73
2021/05/04 00:58:47;;;;;;;5.23;4.83;;;9.90;32.90;;;;;;10464852;28;20728;-73
2021/05/04 01:03:50;;;;;;;4.50;4.10;;;9.90;33.00;;;;;;10462997;28;20220;-73
2021/05/04 01:08:53;;;;;;;6.03;5.37;;;9.80;32.70;;;;;;10463798;28;20232;-73
2021/05/04 01:13:56;;;;;;;5.33;4.93;;;9.90;32.80;;;;;;10461361;28;20320;-73
2021/05/04 01:18:58;;;;;;;5.70;5.13;;;9.70;32.60;;;;;;10456396;28;20351;-73
2021/05/04 01:24:02;;;;;;;5.80;5.20;;;9.60;32.70;;;;;;10466051;28;20221;-73
2021/05/04 01:29:04;;;;;;;6.70;5.20;;;9.50;33.20;;;;;;10461937;28;20221;-73
2021/05/04 01:34:07;;;;;;;6.07;5.47;;;9.40;32.80;;;;;;10459883;28;20224;-74
2021/05/04 01:39:11;;;;;;;6.30;5.53;;;9.30;32.90;;;;;;10463636;28;20573;-73
2021/05/04 01:44:14;;;;;;;5.40;5.00;;;9.20;33.30;;;;;;10461943;28;20343;-73
2021/05/04 01:49:16;;;;;;;6.03;5.40;;;9.20;33.30;;;;;;10459489;28;20669;-73
2021/05/04 01:54:19;;;;;;;6.53;5.93;;;9.00;33.30;;;;;;10461275;28;20223;-73
2021/05/04 01:59:22;;;;;;;6.07;5.57;;;9.00;33.70;;;;;;10457223;28;20261;-73
2021/05/04 02:04:24;;;;;;;5.67;5.20;;;9.00;33.50;;;;;;10478357;28;20228;-73
2021/05/04 02:09:28;;;;;;;5.67;5.17;;;8.90;33.60;;;;;;10464846;28;20639;-73
2021/05/04 02:14:30;;;;;;;5.03;4.63;;;8.80;33.90;;;;;;10477638;28;20596;-73
2021/05/04 02:19:33;;;;;;;5.73;5.17;;;8.80;33.70;;;;;;10478147;28;20240;-73
2021/05/04 02:24:36;;;;;;;5.70;5.20;;;8.80;33.80;;;;;;10482684;28;20924;-73
2021/05/04 02:29:38;;;;;;;5.97;5.37;;;8.80;33.90;;;;;;10473844;28;20311;-73
2021/05/04 02:34:40;;;;;;;5.07;4.67;;;8.70;33.80;;;;;;10476330;28;20228;-73
2021/05/04 02:39:43;;;;;;;5.23;4.83;;;8.70;34.10;;;;;;10478941;28;20253;-73
2021/05/04 02:44:46;;;;;;;4.87;4.47;;;8.70;34.60;;;;;;10473163;28;20274;-73
2021/05/04 02:49:48;;;;;;;5.57;4.60;;;8.70;34.50;;;;;;10481854;28;20232;-73
2021/05/04 02:54:52;;;;;;;4.83;4.43;;;8.70;34.60;;;;;;10471555;28;20715;-73
2021/05/04 02:59:54;;;;;;;4.40;4.10;;;8.70;34.70;;;;;;10468909;28;20221;-73
2021/05/04 03:04:56;;;;;;;3.93;3.63;;;8.70;34.60;;;;;;10472443;28;20868;-73
2021/05/04 03:09:59;;;;;;;4.40;4.00;;;8.70;34.60;;;;;;10470513;28;20262;-73
2021/05/04 03:15:01;;;;;;;3.90;3.60;;;8.80;34.80;;;;;;10469948;28;20220;-73
2021/05/04 03:20:05;;;;;;;4.07;3.73;;;8.80;34.80;;;;;;10471035;28;20781;-73
2021/05/04 03:25:09;;;;;;;4.13;3.83;;;8.80;35.60;;;;;;10473109;28;20656;-73
2021/05/04 03:30:12;;;;;;;3.93;3.57;;;8.80;35.10;;;;;;10473348;28;20250;-73
2021/05/04 03:35:15;;;;;;;3.60;3.30;;;8.70;34.90;;;;;;10465944;28;20248;-73
2021/05/04 03:40:18;;;;;;;3.80;3.50;;;8.70;35.00;;;;;;10481719;28;20418;-73
2021/05/04 03:45:20;;;;;;;3.13;2.93;;;8.70;35.20;;;;;;10478930;28;20320;-72
2021/05/04 03:50:25;;;;;;;3.37;3.07;;;8.70;35.10;;;;;;10483764;28;20651;-73
2021/05/04 03:55:29;;;;;;;3.10;2.90;;;8.60;35.30;;;;;;10481475;28;20253;-72
2021/05/04 04:00:31;;;;;;;3.10;2.80;;;8.60;35.30;;;;;;10482380;28;20231;-72
2021/05/04 04:05:33;;;;;;;3.10;2.90;;;8.60;35.20;;;;;;10472690;28;20378;-72
2021/05/04 04:10:39;;;;;;;3.30;3.00;;;8.60;35.30;;;;;;10475904;28;20588;-72
2021/05/04 04:15:42;;;;;;;3.07;2.87;;;8.60;35.50;;;;;;10475671;28;20624;-72
2021/05/04 04:20:44;;;;;;;3.07;2.87;;;8.60;35.40;;;;;;10471439;28;20640;-72
2021/05/04 04:25:47;;;;;;;3.20;3.00;;;8.70;35.50;;;;;;10470117;28;20228;-72
2021/05/04 04:30:49;;;;;;;3.77;3.03;;;8.70;35.60;;;;;;10462898;28;20311;-72
2021/05/04 04:35:52;;;;;;;3.07;2.47;;;8.70;35.60;;;;;;10459869;28;20213;-71
2021/05/04 04:40:55;;;;;;;3.00;2.80;;;8.70;36.00;;;;;;10469510;28;20225;-72
2021/05/04 04:45:58;;;;;;;3.27;2.97;;;8.80;36.20;;;;;;10479078;28;20221;-71
2021/05/04 04:51:00;;;;;;;3.00;2.80;;;8.80;36.20;;;;;;10465216;28;20228;-71
2021/05/04 04:56:04;;;;;;;3.13;2.93;;;8.90;36.50;;;;;;10465582;28;20309;-71
2021/05/04 05:01:06;;;;;;;3.07;2.87;;;9.10;36.60;;;;;;10469326;28;20326;-71
2021/05/04 05:06:08;;;;;;;3.00;2.80;;;9.20;36.40;;;;;;10463862;28;20233;-71
2021/05/04 05:11:12;;;;;;;4.43;2.90;;;9.30;36.40;;;;;;10462349;28;20784;-72
2021/05/04 05:16:18;;;;;;;3.33;3.13;;;9.50;36.70;;;;;;10470906;28;20220;-71
2021/05/04 05:21:25;;;;;;;3.13;2.93;;;9.60;36.30;;;;;;10465583;28;20740;-72
2021/05/04 05:26:30;;;;;;;3.30;2.90;;;9.80;36.30;;;;;;10463880;28;20849;-72
2021/05/04 05:31:34;;;;;;;3.50;3.20;;;10.00;35.60;;;;;;10469994;28;20248;-72
2021/05/04 05:36:37;;;;;;;3.20;2.90;;;10.20;35.40;;;;;;10455800;28;20217;-71
2021/05/04 05:41:40;;;;;;;3.27;3.03;;;10.30;35.30;;;;;;10469632;28;20253;-71
2021/05/04 05:46:43;;;;;;;3.67;3.37;;;10.50;35.50;;;;;;10466039;28;20270;-72
2021/05/04 05:51:45;;;;;;;3.17;2.90;;;10.70;35.50;;;;;;10466108;28;20236;-72
2021/05/04 05:56:49;;;;;;;3.03;2.83;;;10.90;35.40;;;;;;10466894;28;20320;-72
2021/05/04 06:01:51;;;;;;;3.50;3.20;;;11.10;35.40;;;;;;10472690;28;20228;-72
2021/05/04 06:06:53;;;;;;;3.27;2.97;;;11.30;35.30;;;;;;10472976;28;20303;-72
2021/05/04 06:11:59;;;;;;;3.30;3.00;;;11.40;35.10;;;;;;10470240;28;20871;-72
2021/05/04 06:17:02;;;;;;;2.90;2.70;;;11.60;35.30;;;;;;10465414;28;20270;-72
2021/05/04 06:22:04;;;;;;;3.30;3.00;;;11.80;35.10;;;;;;10474071;28;20251;-72
2021/05/04 06:27:07;;;;;;;3.50;2.80;;;11.90;34.90;;;;;;10466442;28;20256;-72
2021/05/04 06:32:11;;;;;;;3.13;2.93;;;12.10;34.80;;;;;;10476063;28;20235;-72
2021/05/04 06:37:13;;;;;;;3.03;2.83;;;12.20;34.80;;;;;;10473337;28;20311;-71
2021/05/04 06:42:18;;;;;;;3.67;2.87;;;12.30;35.30;;;;;;10463226;28;20717;-71
2021/05/04 06:47:20;;;;;;;2.77;2.57;;;12.50;34.50;;;;;;10461258;28;20232;-71
2021/05/04 06:52:23;;;;;;;2.83;2.63;;;12.60;34.40;;;;;;10470027;28;20248;-71
2021/05/04 06:57:26;;;;;;;2.80;2.60;;;12.70;34.40;;;;;;10465435;28;20281;-72
2021/05/04 07:02:28;;;;;;;2.77;2.50;;;12.90;34.40;;;;;;10459137;28;20311;-72
2021/05/04 07:07:30;;;;;;;3.00;2.80;;;13.00;34.30;;;;;;10456400;28;20229;-72
2021/05/04 07:12:36;;;;;;;3.10;2.80;;;13.10;34.10;;;;;;10478010;28;20237;-72
2021/05/04 07:17:39;;;;;;;3.40;3.10;;;13.20;33.60;;;;;;10471952;28;20221;-72
2021/05/04 07:22:41;;;;;;;3.20;2.90;;;13.30;34.50;;;;;;10482164;28;20231;-72
2021/05/04 07:27:44;;;;;;;3.10;2.80;;;13.50;33.90;;;;;;10475626;28;20919;-72
2021/05/04 07:32:46;;;;;;;3.60;2.90;;;13.60;33.90;;;;;;10473130;28;20221;-72
2021/05/04 07:37:49;;;;;;;3.27;2.77;;;13.80;34.20;;;;;;10477981;28;20243;-73
2021/05/04 07:42:52;;;;;;;3.00;2.70;;;14.00;33.90;;;;;;10479491;28;20217;-72
2021/05/04 07:47:56;;;;;;;3.20;2.90;;;14.20;33.60;;;;;;10463557;28;20226;-72
2021/05/04 07:52:58;;;;;;;2.87;2.53;;;14.40;33.70;;;;;;10465789;28;20220;-73
2021/05/04 07:58:02;;;;;;;3.23;2.83;;;14.60;33.60;;;;;;10467608;28;20307;-72
2021/05/04 08:03:05;;;;;;;2.80;2.60;;;14.90;33.50;;;;;;10475847;28;20283;-72
2021/05/04 08:08:09;;;;;;;2.97;2.50;;;15.10;33.40;;;;;;10469044;28;20224;-72
2021/05/04 08:13:13;;;;;;;2.63;2.43;;;15.40;33.40;;;;;;10474462;28;20245;-73
2021/05/04 08:18:16;;;;;;;3.17;2.27;;;15.80;32.80;;;;;;10467020;28;20252;-73
2021/05/04 08:23:21;;;;;;;3.13;2.10;;;16.20;32.30;;;;;;10467126;28;20266;-73
2021/05/04 08:28:24;;;;;;;2.70;2.40;;;16.50;31.70;;;;;;10468279;28;20312;-73
2021/05/04 08:33:27;;;;;;;2.27;2.10;;;16.90;30.30;;;;;;10472450;28;20248;-72
2021/05/04 08:38:29;;;;;;;3.07;2.40;;;17.30;29.80;;;;;;10480280;28;20339;-73
2021/05/04 08:43:33;;;;;;;2.43;2.23;;;17.50;29.30;;;;;;10462062;28;20225;-73
2021/05/04 08:48:38;;;;;;;2.60;2.13;;;17.70;28.40;;;;;;10470670;28;20232;-73
2021/05/04 08:53:43;;;;;;;2.10;2.00;;;18.00;28.40;;;;;;10471411;28;20221;-73
2021/05/04 08:58:47;;;;;;;2.10;2.00;;;18.20;27.50;;;;;;10472281;28;20625;-73
2021/05/04 09:03:52;;;;;;;1.83;1.73;;;18.40;27.40;;;;;;10482428;28;20303;-74
2021/05/04 09:09:05;;;;;;;2.10;1.90;;;18.60;27.60;;;;;;10467082;28;20228;-73
2021/05/04 09:14:14;;;;;;;1.90;1.80;;;18.80;26.70;;;;;;10471127;28;20240;-74
2021/05/04 09:19:38;;;;;;;1.77;1.57;;;18.90;26.60;;;;;;10477723;28;20220;-73
2021/05/04 09:24:42;;;;;;;1.70;1.60;;;19.00;26.30;;;;;;10467657;28;20726;-73
2021/05/04 09:29:51;;;;;;;2.07;1.90;;;19.20;26.40;;;;;;10464859;28;20229;-73
2021/05/04 09:34:58;;;;;;;3.30;1.80;;;19.30;24.80;;;;;;10469210;28;20278;-73
2021/05/04 09:40:26;;;;;;;2.13;1.77;;;19.40;25.20;;;;;;10477796;28;20228;-73
2021/05/04 09:45:33;;;;;;;2.30;2.20;;;19.40;25.60;;;;;;10469596;28;20755;-73
2021/05/04 09:50:57;;;;;;;2.93;1.70;;;19.50;25.00;;;;;;10473283;28;20281;-73
2021/05/04 09:56:01;;;;;;;1.77;1.67;;;19.60;24.50;;;;;;10460868;28;20277;-73
2021/05/04 10:01:07;;;;;;;2.43;1.80;;;19.60;25.10;;;;;;10481127;28;20290;-73
2021/05/04 10:06:11;;;;;;;2.03;1.80;;;19.70;24.30;;;;;;10472467;28;20648;-73
2021/05/04 10:11:15;;;;;;;1.70;1.60;;;19.80;24.70;;;;;;10472222;28;20252;-73
2021/05/04 10:16:23;;;;;;;2.10;1.60;;;19.90;25.00;;;;;;10468224;28;20247;-74
2021/05/04 10:21:26;;;;;;;2.30;1.40;;;19.90;25.30;;;;;;10470355;28;20765;-74
2021/05/04 10:26:30;;;;;;;1.80;1.70;;;19.90;24.30;;;;;;10465566;28;20243;-74
2021/05/04 10:31:36;;;;;;;2.47;1.50;;;19.90;24.10;;;;;;10459979;28;20241;-73
2021/05/04 10:36:39;;;;;;;2.70;1.63;;;19.90;24.20;;;;;;10466246;28;20229;-73
2021/05/04 10:41:55;;;;;;;2.70;1.90;;;19.90;24.20;;;;;;10477873;28;20255;-73
2021/05/04 10:46:59;;;;;;;2.10;1.90;;;19.90;23.90;;;;;;10461243;28;20296;-74
2021/05/04 10:52:04;;;;;;;2.17;1.70;;;19.90;23.80;;;;;;10463842;28;20221;-75
2021/05/04 10:57:06;;;;;;;1.90;1.80;;;20.00;24.50;;;;;;10470486;28;20227;-75
2021/05/04 11:02:27;;;;;;;3.23;1.73;;;20.00;24.90;;;;;;10467308;28;20240;-74
2021/05/04 11:07:53;;;;;;;2.10;1.90;;;20.00;23.30;;;;;;10473929;28;20258;-74
2021/05/04 11:12:56;;;;;;;3.00;1.80;;;20.00;24.30;;;;;;10463349;28;20312;-75
2021/05/04 11:17:59;;;;;;;1.80;1.70;;;20.00;23.50;;;;;;10466497;28;20262;-75
2021/05/04 11:23:02;;;;;;;1.80;1.70;;;20.00;23.50;;;;;;10466106;28;20228;-75
2021/05/04 11:28:05;;;;;;;3.20;1.70;;;20.00;24.10;;;;;;10477207;28;20731;-75
2021/05/04 11:33:30;;;;;;;1.73;1.63;;;20.10;24.30;;;;;;10465418;28;20220;-75
2021/05/04 11:38:33;;;;;;;1.33;1.33;;;20.20;23.80;;;;;;10477219;28;20248;-75
2021/05/04 11:43:35;;;;;;;2.07;1.83;;;20.20;24.00;;;;;;10469876;28;20704;-75
2021/05/04 11:48:39;;;;;;;2.27;1.70;;;20.30;23.90;;;;;;10478833;28;20672;-75
2021/05/04 11:53:41;;;;;;;3.00;1.87;;;20.30;23.90;;;;;;10468037;28;20228;-75
2021/05/04 11:58:44;;;;;;;1.73;1.63;;;20.50;23.60;;;;;;10487503;28;20224;-75
2021/05/04 12:03:52;;;;;;;2.20;1.90;;;20.50;23.90;;;;;;10463988;28;20245;-74
2021/05/04 12:08:55;;;;;;;2.13;1.60;;;20.70;23.30;;;;;;10461480;28;20244;-74
2021/05/04 12:13:57;;;;;;;2.20;2.00;;;20.80;23.80;;;;;;10478104;28;20639;-74
2021/05/04 12:19:01;;;;;;;1.70;1.60;;;20.80;23.70;;;;;;10477750;28;20228;-74
2021/05/04 12:24:05;;;;;;;1.70;1.60;;;20.80;23.00;;;;;;10476149;28;20308;-74
2021/05/04 12:29:08;;;;;;;2.03;1.93;;;20.90;23.40;;;;;;10483761;28;20225;-74
2021/05/04 12:34:21;;;;;;;1.80;1.70;;;20.90;23.00;;;;;;10474222;28;20772;-74
2021/05/04 12:39:28;;;;;;;3.53;1.70;;;21.00;23.10;;;;;;10469793;28;20229;-74
2021/05/04 12:44:31;;;;;;;5.23;2.00;;;21.00;23.10;;;;;;10471951;28;20282;-74
2021/05/04 12:49:37;;;;;;;1.77;1.60;;;21.00;22.00;;;;;;10476985;28;20247;-74
2021/05/04 12:54:41;;;;;;;1.93;1.43;;;21.00;21.80;;;;;;10472960;28;20274;-74
2021/05/04 12:59:44;;;;;;;2.40;1.50;;;21.00;21.90;;;;;;10476414;28;20367;-75
2021/05/04 13:04:50;;;;;;;5.37;1.57;;;20.90;21.50;;;;;;10471541;28;20266;-75
2021/05/04 13:10:00;;;;;;;3.87;1.57;;;20.90;21.40;;;;;;10467575;28;20229;-76
2021/05/04 13:15:14;;;;;;;3.43;1.60;;;20.90;20.60;;;;;;10481079;28;20274;-76
2021/05/04 13:31:16;;;;;;;1.97;1.47;;;20.70;20.70;;;;;;10468394;28;20293;-75
2021/05/04 13:36:22;;;;;;;1.57;1.20;;;20.60;20.60;;;;;;10465130;28;20307;-75
2021/05/04 13:52:06;;;;;;;3.27;1.50;;;20.40;20.40;;;;;;10464625;28;20262;-75
2021/05/04 13:57:08;;;;;;;1.57;1.47;;;20.30;20.10;;;;;;10461643;28;20256;-71
2021/05/04 14:02:15;;;;;;;2.17;1.40;;;20.30;20.50;;;;;;10457443;28;20297;-71
2021/05/04 14:07:46;;;;;;;2.40;1.53;;;20.30;20.70;;;;;;10462744;28;20234;-71
2021/05/04 14:28:52;;;;;;;1.83;1.73;;;20.10;20.80;;;;;;10464719;28;20613;-72
2021/05/04 14:33:55;;;;;;;2.20;1.53;;;20.10;20.60;;;;;;10465207;28;21251;-71
2021/05/04 14:39:08;;;;;;;2.03;1.90;;;20.10;20.50;;;;;;10465019;28;20263;-71
2021/05/04 14:44:42;;;;;;;1.70;1.60;;;20.10;20.10;;;;;;10464959;28;20235;-71
2021/05/04 15:00:42;;;;;;;2.23;1.33;;;20.00;20.00;;;;;;10460842;28;20252;-71
2021/05/04 15:05:44;;;;;;;2.27;1.40;;;20.00;20.30;;;;;;10470812;28;20286;-71
2021/05/04 15:10:48;;;;;;;1.70;1.60;;;20.10;20.60;;;;;;10468930;28;21255;-71
2021/05/04 15:16:03;;;;;;;3.30;1.50;;;20.10;20.30;;;;;;10454573;28;20236;-71
2021/05/04 15:21:27;;;;;;;1.60;1.50;;;20.20;20.40;;;;;;10467252;28;20285;-71
2021/05/04 15:26:30;;;;;;;1.60;1.40;;;20.20;20.40;;;;;;10457659;28;20300;-72
2021/05/04 15:31:45;;;;;;;1.70;1.60;;;20.10;20.50;;;;;;10468262;28;20258;-71
2021/05/04 15:36:47;;;;;;;1.83;1.50;;;20.20;20.40;;;;;;10475247;28;20233;-72
2021/05/04 15:41:51;;;;;;;1.70;1.37;;;20.30;21.00;;;;;;10478799;28;20255;-72
2021/05/04 15:46:57;;;;;;;1.83;1.40;;;20.40;21.00;;;;;;10492672;28;20224;-72
2021/05/04 15:52:12;;;;;;;1.70;1.60;;;20.40;21.00;;;;;;10472156;28;20228;-72
2021/05/04 16:03:06;;;;;;;1.60;1.50;;;20.50;20.70;;;;;;10480403;28;20303;-72
2021/05/04 16:08:17;;;;;;;2.27;1.40;;;20.50;21.00;;;;;;10483845;28;20220;-72
2021/05/04 16:13:20;;;;;;;2.03;1.83;;;20.50;21.20;;;;;;10471871;28;20224;-72
2021/05/04 16:18:23;;;;;;;1.80;1.70;;;20.40;21.30;;;;;;10478955;28;20274;-72
2021/05/04 16:23:29;;;;;;;2.70;1.80;;;20.30;21.40;;;;;;10461147;28;20813;-72
2021/05/04 16:28:35;;;;;;;1.80;1.70;;;20.10;21.50;;;;;;10472938;28;20310;-71
2021/05/04 16:33:38;;;;;;;1.90;1.80;;;20.00;21.70;;;;;;10487051;28;20220;-72
2021/05/04 16:38:42;;;;;;;1.97;1.87;;;19.80;21.90;;;;;;10471434;28;20232;-71
2021/05/04 16:43:46;;;;;;;1.93;1.83;;;19.70;21.90;;;;;;10466701;28;20225;-71
2021/05/04 16:48:50;;;;;;;3.17;1.80;;;19.60;22.20;;;;;;10473528;28;20256;-71
2021/05/04 16:53:52;;;;;;;2.13;1.70;;;19.50;22.30;;;;;;10474227;28;20257;-71
2021/05/04 16:58:55;;;;;;;1.83;1.73;;;19.40;22.40;;;;;;10467343;28;20228;-71
2021/05/04 17:03:58;;;;;;;2.43;1.70;;;19.30;22.60;;;;;;10470693;28;20224;-71
2021/05/04 17:09:13;;;;;;;1.73;1.63;;;19.20;22.70;;;;;;10476391;28;20252;-73
2021/05/04 17:14:16;;;;;;;1.93;1.70;;;19.20;22.70;;;;;;10477970;28;20742;-71
2021/05/04 17:19:20;;;;;;;1.90;1.80;;;19.10;22.80;;;;;;10475383;28;20235;-70
2021/05/04 17:24:23;;;;;;;1.90;1.80;;;19.00;22.60;;;;;;10468534;28;20270;-70
2021/05/04 17:29:26;;;;;;;2.10;1.90;;;18.80;22.70;;;;;;10458303;28;20285;-71
2021/05/04 17:34:28;;;;;;;3.30;1.97;;;18.60;22.80;;;;;;10452825;28;20221;-71
2021/05/04 17:39:30;;;;;;;2.30;2.10;;;18.50;23.10;;;;;;10454866;28;20294;-71
2021/05/04 17:44:34;;;;;;;2.70;2.20;;;18.30;23.30;;;;;;10462360;28;20260;-71
2021/05/04 17:49:39;;;;;;;1.97;1.83;;;18.20;23.50;;;;;;10455621;28;20678;-71
2021/05/04 17:54:42;;;;;;;1.90;1.80;;;18.00;23.50;;;;;;10458339;28;20227;-71
2021/05/04 17:59:47;;;;;;;2.13;1.63;;;18.00;23.90;;;;;;10460789;28;20228;-71
2021/05/04 18:04:49;;;;;;;1.90;1.80;;;18.00;24.00;;;;;;10460551;28;20230;-71
2021/05/04 18:10:11;;;;;;;1.90;1.70;;;17.90;23.90;;;;;;10456608;28;20224;-71
2021/05/04 18:19:19;;;;;;;2.17;1.90;;;17.90;23.90;;;;;;10461690;28;20222;-71
2021/05/04 18:26:04;;;;;;;2.20;1.87;;;17.70;23.80;;;;;;10456397;28;20228;-71
2021/05/04 18:31:10;;;;;;;2.07;1.90;;;17.50;23.80;;;;;;10456619;28;20229;-71
2021/05/04 18:36:24;;;;;;;2.20;2.00;;;17.40;24.10;;;;;;10468362;28;20255;-71
2021/05/04 19:08:33;;;;;;;2.10;2.00;;;17.40;25.20;;;;;;10479435;28;20322;-72
2021/05/04 19:24:44;;;;;;;2.33;2.03;;;17.50;26.00;;;;;;10474576;28;20305;-72
2021/05/04 19:29:54;;;;;;;4.00;3.50;;;17.50;25.70;;;;;;10461664;28;20228;-72
2021/05/04 20:12:17;;;;;;;4.73;4.27;;;16.80;26.90;;;;;;10468899;28;20228;-72
2021/05/04 20:17:19;;;;;;;3.87;3.20;;;16.60;26.60;;;;;;10480490;28;20257;-72
2021/05/04 20:22:24;;;;;;;3.30;3.00;;;16.40;26.50;;;;;;10476624;28;20228;-73
2021/05/04 20:27:26;;;;;;;2.57;2.37;;;16.30;26.80;;;;;;10476543;28;20336;-73
2021/05/04 20:32:28;;;;;;;2.57;2.40;;;16.20;26.80;;;;;;10465242;28;20225;-71
2021/05/04 20:37:31;;;;;;;2.50;2.40;;;16.10;26.90;;;;;;10471314;28;20232;-70
2021/05/04 20:42:34;;;;;;;4.07;2.90;;;16.10;27.20;;;;;;10457448;28;20845;-70
2021/05/04 20:47:37;;;;;;;2.87;2.67;;;16.10;27.90;;;;;;10462868;28;20708;-70
2021/05/04 20:52:42;;;;;;;3.70;2.97;;;16.00;27.50;;;;;;10456944;28;20235;-70
2021/05/04 20:57:46;;;;;;;3.30;3.00;;;16.00;27.70;;;;;;10457746;28;20304;-70
2021/05/04 21:02:49;;;;;;;2.87;2.57;;;15.90;27.70;;;;;;10456707;28;20559;-71
2021/05/04 21:07:53;;;;;;;2.80;2.50;;;15.90;28.00;;;;;;10457646;28;20221;-70
2021/05/04 21:12:55;;;;;;;3.30;3.00;;;15.80;28.10;;;;;;10457866;28;20231;-70
2021/05/04 21:18:00;;;;;;;4.00;3.50;;;15.70;28.10;;;;;;10454306;28;20235;-70
2021/05/04 21:23:10;;;;;;;3.03;2.67;;;15.70;28.50;;;;;;10459282;28;20224;-70
2021/05/04 21:28:12;;;;;;;2.50;2.30;;;15.60;28.80;;;;;;10456717;28;20347;-70
2021/05/04 21:33:14;;;;;;;2.67;2.47;;;15.60;29.00;;;;;;10459429;28;20359;-70
2021/05/04 21:38:17;;;;;;;2.50;2.30;;;15.50;28.90;;;;;;10457150;28;20225;-70
2021/05/04 21:43:19;;;;;;;1.97;1.83;;;15.50;29.40;;;;;;10462247;28;20322;-70
2021/05/04 21:48:22;;;;;;;2.37;2.17;;;15.40;29.20;;;;;;10466248;28;20320;-69
2021/05/04 21:53:25;;;;;;;2.13;2.00;;;15.40;29.20;;;;;;10453131;28;20256;-70
2021/05/04 21:58:27;;;;;;;2.00;1.90;;;15.40;29.50;;;;;;10455908;28;20604;-70
2021/05/04 22:03:29;;;;;;;2.43;2.10;;;15.40;29.70;;;;;;10454764;28;20232;-70
2021/05/04 22:08:33;;;;;;;2.57;2.20;;;15.40;29.60;;;;;;10458035;28;20258;-70
2021/05/04 22:13:46;;;;;;;2.53;2.33;;;15.40;29.90;;;;;;10451968;28;20760;-70
2021/05/04 22:29:43;;;;;;;2.20;2.10;;;15.40;30.00;;;;;;10457862;28;20638;-70
2021/05/04 22:34:48;;;;;;;2.20;2.00;;;15.50;29.80;;;;;;10457629;28;20304;-70
2021/05/04 22:39:57;;;;;;;2.17;2.00;;;15.40;29.90;;;;;;10462254;28;20267;-70
2021/05/04 22:45:16;;;;;;;2.43;2.23;;;15.50;30.20;;;;;;10461745;28;20236;-70
2021/05/04 23:17:02;;;;;;;2.50;2.30;;;15.50;30.00;;;;;;10462001;28;20224;-70
2021/05/04 23:22:05;;;;;;;2.10;2.00;;;15.50;30.00;;;;;;10461931;28;20696;-69
2021/05/04 23:27:08;;;;;;;2.43;2.23;;;15.50;30.00;;;;;;10465925;28;20653;-74
2021/05/04 23:32:11;;;;;;;2.27;2.10;;;15.50;30.40;;;;;;10458484;28;20228;-74
2021/05/04 23:37:13;;;;;;;2.23;2.10;;;15.40;30.20;;;;;;10469894;28;20299;-74
2021/05/04 23:42:17;;;;;;;2.40;2.30;;;15.40;30.30;;;;;;10477175;28;20239;-74
2021/05/04 23:47:19;;;;;;;2.30;2.20;;;15.30;30.50;;;;;;10471843;28;20282;-75
2021/05/04 23:52:23;;;;;;;2.20;2.10;;;15.30;30.30;;;;;;10467164;28;20228;-74
2021/05/04 23:57:26;;;;;;;2.00;1.90;;;15.30;30.50;;;;;;10481691;28;20245;-76
